Time;durP1;ratioP1;P1;durP2;ratioP2;P2;SDS_P1;SDS_P2;PMS_P1;PMS_P2;Temp;Humidity;BMP_temperature;BMP_pressure;BME280_temperature;BME280_humidity;BME280_pressure;Samples;Min_cycle;Max_cycle;Signal;HPM_P1;HPM_P2
2021/01/21 12:02:25;;;;;;;2.75;0.98;;;;;;;;;;10463256;28;20033;-84
2021/01/21 12:07:31;;;;;;;3.13;0.90;;;;;;;;;;10467381;28;20060;-83
2021/01/21 12:12:32;;;;;;;7.22;4.78;;;;;;;;;;10468884;28;20052;-84
2021/01/21 12:17:33;;;;;;;2.35;0.80;;;;;;;;;;10471090;28;20052;-84
2021/01/21 12:22:36;;;;;;;2.42;0.88;;;;;;;;;;10466464;28;20021;-85
2021/01/21 12:27:38;;;;;;;2.97;1.00;;;;;;;;;;10478182;28;20040;-84
2021/01/21 12:32:39;;;;;;;1.98;0.80;;;;;;;;;;10475949;28;20064;-84
2021/01/21 12:37:42;;;;;;;4.50;1.10;;;;;;;;;;10469624;28;20068;-84
2021/01/21 12:43:04;;;;;;;4.53;0.95;;;;;;;;;;10465623;28;20071;-85
2021/01/21 12:48:08;;;;;;;2.33;0.80;;;;;;;;;;10467735;28;20144;-83
2021/01/21 12:53:13;;;;;;;2.55;0.60;;;;;;;;;;10456094;28;20029;-83
2021/01/21 12:58:15;;;;;;;2.28;0.80;;;;;;;;;;10446886;28;20018;-84
2021/01/21 13:03:23;;;;;;;2.28;0.88;;;;;;;;;;10450683;28;20032;-84
2021/01/21 13:09:02;;;;;;;2.47;1.00;;;;;;;;;;10445993;28;20530;-83
2021/01/21 13:14:23;;;;;;;2.72;0.77;;;;;;;;;;10440133;28;20037;-84
2021/01/21 13:19:28;;;;;;;3.38;1.10;;;;;;;;;;10440171;28;20460;-84
2021/01/21 13:24:35;;;;;;;3.75;1.08;;;;;;;;;;10442967;28;20033;-84
2021/01/21 13:29:38;;;;;;;1.70;0.70;;;;;;;;;;10440351;28;20029;-83
2021/01/21 13:35:00;;;;;;;3.40;1.00;;;;;;;;;;10392954;28;20109;-84
2021/01/21 13:40:16;;;;;;;4.45;1.00;;;;;;;;;;10430731;28;20037;-84
2021/01/21 13:45:34;;;;;;;3.40;0.80;;;;;;;;;;10436560;28;20038;-84
2021/01/21 13:50:41;;;;;;;3.00;1.00;;;;;;;;;;10453713;28;20108;-85
2021/01/21 14:01:18;;;;;;;2.53;0.60;;;;;;;;;;10426452;28;20042;-85
2021/01/21 14:06:20;;;;;;;2.25;0.75;;;;;;;;;;10425411;28;20041;-83
2021/01/21 14:11:29;;;;;;;1.90;0.98;;;;;;;;;;10426561;28;20029;-83
2021/01/21 14:16:33;;;;;;;2.20;0.73;;;;;;;;;;10427493;28;20538;-84
2021/01/21 14:21:43;;;;;;;2.75;1.08;;;;;;;;;;10446329;28;20093;-84
2021/01/21 14:26:50;;;;;;;2.78;1.00;;;;;;;;;;10432735;28;20037;-84
2021/01/21 14:31:55;;;;;;;2.78;0.90;;;;;;;;;;10424834;28;20037;-84
2021/01/21 14:37:11;;;;;;;2.95;0.82;;;;;;;;;;10427366;28;20045;-84
2021/01/21 14:42:30;;;;;;;4.13;1.00;;;;;;;;;;10410985;28;20523;-84
2021/01/21 14:47:43;;;;;;;1.90;0.85;;;;;;;;;;10422330;28;20033;-84
2021/01/21 14:52:47;;;;;;;2.78;0.60;;;;;;;;;;10425275;28;20021;-85
2021/01/21 14:58:11;;;;;;;1.98;0.85;;;;;;;;;;10408648;28;20423;-84
2021/01/21 15:03:22;;;;;;;3.72;0.60;;;;;;;;;;10426213;28;20021;-85
2021/01/21 15:08:30;;;;;;;2.70;0.80;;;;;;;;;;10428579;28;20026;-88
2021/01/21 15:13:33;;;;;;;2.50;0.93;;;;;;;;;;10432827;28;20036;-86
2021/01/21 15:18:35;;;;;;;2.33;0.90;;;;;;;;;;10425444;28;20025;-84
2021/01/21 15:24:06;;;;;;;4.00;0.90;;;;;;;;;;10423750;28;20026;-88
2021/01/21 15:29:13;;;;;;;2.75;0.90;;;;;;;;;;10429371;28;20032;-84
2021/01/21 15:34:16;;;;;;;3.28;1.25;;;;;;;;;;10424151;28;20022;-84
2021/01/21 15:39:18;;;;;;;2.80;0.90;;;;;;;;;;10421936;28;20021;-84
2021/01/21 15:44:44;;;;;;;1.50;0.60;;;;;;;;;;10421814;28;20045;-87
2021/01/21 15:49:50;;;;;;;2.35;0.70;;;;;;;;;;10421809;28;20038;-85
2021/01/21 15:55:02;;;;;;;2.22;1.08;;;;;;;;;;10428773;28;20026;-85
2021/01/21 16:00:05;;;;;;;3.28;1.20;;;;;;;;;;10428709;28;20029;-85
2021/01/21 16:05:10;;;;;;;1.50;0.77;;;;;;;;;;10427763;28;20029;-85
2021/01/21 16:10:18;;;;;;;2.25;0.77;;;;;;;;;;10430108;28;20037;-86
2021/01/21 16:15:23;;;;;;;2.83;0.80;;;;;;;;;;10445249;28;20045;-86
2021/01/21 16:20:36;;;;;;;2.05;0.95;;;;;;;;;;10452889;28;20037;-85
2021/01/21 16:25:38;;;;;;;3.28;0.88;;;;;;;;;;10432449;28;20021;-86
2021/01/21 16:30:39;;;;;;;3.38;1.13;;;;;;;;;;10427916;28;20372;-85
2021/01/21 16:35:40;;;;;;;2.15;1.10;;;;;;;;;;10433081;28;20025;-84
2021/01/21 16:46:46;;;;;;;2.67;0.80;;;;;;;;;;10432951;28;20037;-84
2021/01/21 16:57:54;;;;;;;2.65;1.00;;;;;;;;;;10432216;28;20091;-84
2021/01/21 17:02:56;;;;;;;3.60;1.20;;;;;;;;;;10435039;28;20049;-84
2021/01/21 17:08:10;;;;;;;4.00;1.02;;;;;;;;;;10434778;28;20476;-85
2021/01/21 17:13:11;;;;;;;4.15;1.30;;;;;;;;;;10429258;28;20083;-85
2021/01/21 17:18:30;;;;;;;3.47;1.10;;;;;;;;;;10434762;28;20097;-85
2021/01/21 17:23:59;;;;;;;2.92;1.17;;;;;;;;;;10435468;28;20038;-87
2021/01/21 17:29:36;;;;;;;4.18;1.30;;;;;;;;;;10421011;28;20029;-86
2021/01/21 17:34:41;;;;;;;4.07;1.30;;;;;;;;;;10427658;28;20026;-88
2021/01/21 17:40:25;;;;;;;3.40;1.23;;;;;;;;;;10430552;28;20225;-87
2021/01/21 17:45:26;;;;;;;3.75;1.23;;;;;;;;;;10427279;28;20037;-87
2021/01/21 17:50:33;;;;;;;3.65;1.50;;;;;;;;;;10423637;28;20394;-87
2021/01/21 17:55:35;;;;;;;3.67;1.27;;;;;;;;;;10422781;28;20033;-87
2021/01/21 18:01:04;;;;;;;5.68;1.67;;;;;;;;;;10421278;28;20025;-88
2021/01/21 18:06:13;;;;;;;6.25;1.50;;;;;;;;;;10421961;28;20037;-87
2021/01/21 18:11:19;;;;;;;4.75;1.38;;;;;;;;;;10473393;28;20379;-87
2021/01/21 18:16:22;;;;;;;5.47;1.65;;;;;;;;;;10498461;28;20024;-88
2021/01/21 18:21:29;;;;;;;37.80;33.67;;;;;;;;;;10517385;28;20063;-86
2021/01/21 18:26:30;;;;;;;4.80;2.63;;;;;;;;;;10504266;28;20032;-87
2021/01/21 18:31:31;;;;;;;5.03;2.38;;;;;;;;;;10488878;28;20059;-87
2021/01/21 18:36:32;;;;;;;4.13;1.90;;;;;;;;;;10489213;28;20029;-87
2021/01/21 18:41:34;;;;;;;6.07;1.58;;;;;;;;;;10491472;28;20020;-87
2021/01/21 18:46:37;;;;;;;6.85;1.70;;;;;;;;;;10515278;28;20021;-88
2021/01/21 18:51:42;;;;;;;3.03;1.30;;;;;;;;;;10520407;28;20394;-88
2021/01/21 18:56:43;;;;;;;3.80;1.80;;;;;;;;;;10485163;28;20032;-87
2021/01/21 19:01:44;;;;;;;4.80;1.67;;;;;;;;;;10483683;28;20032;-87
2021/01/21 19:06:48;;;;;;;3.95;1.77;;;;;;;;;;10486862;28;20028;-87
2021/01/21 19:11:52;;;;;;;5.78;2.50;;;;;;;;;;10480335;28;20021;-87
2021/01/21 19:16:53;;;;;;;6.68;4.13;;;;;;;;;;10509156;28;20481;-86
2021/01/21 19:21:54;;;;;;;11.63;6.55;;;;;;;;;;10491802;28;20029;-87
2021/01/21 19:26:58;;;;;;;12.93;8.23;;;;;;;;;;10500354;28;20500;-87
2021/01/21 19:32:02;;;;;;;6.60;3.60;;;;;;;;;;10489750;28;20111;-86
2021/01/21 19:37:03;;;;;;;6.18;2.80;;;;;;;;;;10489754;28;20033;-87
2021/01/21 19:42:04;;;;;;;6.80;2.80;;;;;;;;;;10486792;28;20031;-87
2021/01/21 19:47:05;;;;;;;7.43;2.30;;;;;;;;;;10486621;28;20045;-87
2021/01/21 19:52:06;;;;;;;6.45;2.40;;;;;;;;;;10485121;28;20025;-87
2021/01/21 19:57:09;;;;;;;4.60;2.10;;;;;;;;;;10486779;28;20036;-86
2021/01/21 20:02:10;;;;;;;4.68;2.10;;;;;;;;;;10486091;28;20119;-86
2021/01/21 20:07:11;;;;;;;5.15;2.30;;;;;;;;;;10492933;28;20028;-86
2021/01/21 20:12:17;;;;;;;5.35;2.33;;;;;;;;;;10493738;28;20024;-87
2021/01/21 20:17:21;;;;;;;5.55;2.40;;;;;;;;;;10493121;28;20039;-87
2021/01/21 20:22:22;;;;;;;3.80;1.70;;;;;;;;;;10495409;28;20096;-86
2021/01/21 20:27:23;;;;;;;5.55;2.08;;;;;;;;;;10496217;28;20390;-86
2021/01/21 20:32:24;;;;;;;3.38;1.90;;;;;;;;;;10524144;28;20044;-86
2021/01/21 20:37:25;;;;;;;4.55;1.73;;;;;;;;;;10492168;28;20126;-87
2021/01/21 20:42:26;;;;;;;5.32;2.47;;;;;;;;;;10492104;28;20445;-87
2021/01/21 20:47:27;;;;;;;4.38;2.55;;;;;;;;;;10492860;28;20035;-87
2021/01/21 20:52:31;;;;;;;3.88;1.83;;;;;;;;;;10496423;28;20024;-87
2021/01/21 20:57:32;;;;;;;3.75;1.52;;;;;;;;;;10493068;28;20029;-86
2021/01/21 21:02:33;;;;;;;3.72;1.50;;;;;;;;;;10491394;28;20035;-87
2021/01/21 21:07:34;;;;;;;3.78;1.75;;;;;;;;;;10492993;28;20028;-86
2021/01/21 21:12:36;;;;;;;3.15;1.45;;;;;;;;;;10516486;28;20118;-87
2021/01/21 21:17:37;;;;;;;4.72;1.58;;;;;;;;;;10520087;28;20029;-87
2021/01/21 21:22:38;;;;;;;2.45;1.17;;;;;;;;;;10498932;28;20028;-87
